createdAt,value
2022-09-12T00:15:29.297Z,99.99
2022-09-12T00:26:07.697Z,99.99
2022-09-12T00:31:27.175Z,99.99
2022-09-12T00:36:46.613Z,99.99
2022-09-12T00:42:05.805Z,99.99
2022-09-12T00:47:24.885Z,99.99
2022-09-12T00:52:44.628Z,99.99
2022-09-12T00:58:04.170Z,99.99
2022-09-12T01:08:42.470Z,99.99
2022-09-12T01:24:40.624Z,99.99
2022-09-12T01:29:59.924Z,99.99
2022-09-12T01:34:16.594Z,99.99
2022-09-12T01:38:49.235Z,99.99
2022-09-12T02:02:33.957Z,99.99
2022-09-12T02:13:12.035Z,99.99
2022-09-12T02:36:39.517Z,99.99
2022-09-12T02:40:56.047Z,99.99
2022-09-12T02:45:08.552Z,99.99
2022-09-12T02:55:46.502Z,99.99
2022-09-12T03:01:06.121Z,99.99
2022-09-12T03:06:24.949Z,99.99
2022-09-12T03:11:44.228Z,99.99
2022-09-12T03:17:03.444Z,99.99
2022-09-12T03:22:22.435Z,99.99
2022-09-12T03:27:41.686Z,99.99
2022-09-12T03:36:14.770Z,99.99
2022-09-12T03:40:31.301Z,99.99
2022-09-12T03:54:17.918Z,99.99
2022-09-12T03:59:37.202Z,99.99
2022-09-12T04:04:56.409Z,99.99
2022-09-12T04:10:16.268Z,99.99
2022-09-12T04:15:35.276Z,99.99
2022-09-12T04:26:13.129Z,99.99
2022-09-12T04:31:32.744Z,99.99
2022-09-12T04:36:51.809Z,99.99
2022-09-12T04:42:10.728Z,99.99
2022-09-12T04:52:50.025Z,99.99
2022-09-12T05:03:28.037Z,99.99
2022-09-12T05:08:47.600Z,99.99
2022-09-12T05:17:20.625Z,99.99
2022-09-12T05:21:37.135Z,99.99
2022-09-12T05:25:53.716Z,99.99
2022-09-12T05:35:23.305Z,99.99
2022-09-12T05:46:13.243Z,99.99
2022-09-12T05:51:21.840Z,99.99
2022-09-12T05:56:41.054Z,99.99
2022-09-12T06:02:00.624Z,99.99
2022-09-12T06:07:20.323Z,99.99
2022-09-12T06:17:59.054Z,99.99
2022-09-12T06:33:56.991Z,99.99
2022-09-12T06:39:16.437Z,99.99
2022-09-12T06:44:45.768Z,99.99
2022-09-12T06:49:54.806Z,99.99
2022-09-12T06:55:17.500Z,99.99
2022-09-12T07:00:33.101Z,99.99
2022-09-12T07:05:51.937Z,99.99
2022-09-12T07:11:10.751Z,99.99
2022-09-12T07:16:30.299Z,99.99
2022-09-12T07:21:49.192Z,99.99
2022-09-12T07:27:08.067Z,99.99
2022-09-12T07:32:26.724Z,99.99
2022-09-12T07:37:46.455Z,99.99
2022-09-12T07:43:05.312Z,99.99
2022-09-12T07:53:43.768Z,99.99
2022-09-12T08:02:17.758Z,99.99
2022-09-12T08:10:49.894Z,99.99
2022-09-12T08:20:19.949Z,99.99
2022-09-12T08:25:38.985Z,99.99
2022-09-12T08:36:17.423Z,99.99
2022-09-12T08:46:55.321Z,99.99
2022-09-12T09:04:01.447Z,99.99
2022-09-12T09:13:31.139Z,99.99
2022-09-12T09:18:50.670Z,99.18
2022-09-12T09:24:10.262Z,97.69
2022-09-12T09:29:28.998Z,97.59
2022-09-12T09:45:25.556Z,96.94
2022-09-12T09:50:45.104Z,96.89
2022-09-12T09:56:04.063Z,96.84
2022-09-12T10:01:23.041Z,97.02
2022-09-12T10:27:57.878Z,97.08
2022-09-12T10:43:55.556Z,96.97
2022-09-12T10:59:52.827Z,96.44
2022-09-12T11:05:11.887Z,96.92
2022-09-12T11:10:35.803Z,97.42
2022-09-12T11:15:50.333Z,97.98
2022-09-12T11:21:09.865Z,97.9
2022-09-12T11:26:28.754Z,98.51
2022-09-12T11:31:47.844Z,99
2022-09-12T11:37:10.383Z,99.76
2022-09-12T11:42:25.490Z,99.99
2022-09-12T11:56:17.952Z,99.99
2022-09-12T12:00:34.470Z,99.99
2022-09-12T12:04:51.060Z,99.99
2022-09-12T12:09:02.280Z,99.99
2022-09-12T12:14:21.780Z,99.99
2022-09-12T12:19:40.823Z,99.99
2022-09-12T12:25:00.086Z,99.99
2022-09-12T12:30:18.886Z,99.99
2022-09-12T12:35:38.510Z,99.99
2022-09-12T12:46:17.009Z,99.99
2022-09-12T12:51:35.851Z,99.99
2022-09-12T12:56:54.502Z,99.99
2022-09-12T13:07:32.734Z,99.99
2022-09-12T13:12:51.824Z,99.99
2022-09-12T13:28:49.581Z,99.99
2022-09-12T13:34:09.200Z,99.99
2022-09-12T13:44:48.063Z,99.99
2022-09-12T13:55:26.694Z,99.99
2022-09-12T14:00:45.599Z,99.99
2022-09-12T14:06:04.513Z,99.99
2022-09-12T14:11:23.198Z,99.99
2022-09-12T14:16:42.468Z,99.99
2022-09-12T14:22:01.981Z,99.99
2022-09-12T14:27:21.698Z,99.99
2022-09-12T14:32:40.614Z,99.99
2022-09-12T14:43:18.517Z,99.99
2022-09-12T14:48:50.040Z,99.99
2022-09-12T14:53:57.631Z,99.99
2022-09-12T14:59:16.907Z,99.99
2022-09-12T15:15:15.003Z,99.99
2022-09-12T15:25:53.953Z,99.99
2022-09-12T15:31:13.011Z,99.99
2022-09-12T15:41:51.049Z,99.99
2022-09-12T15:47:10.166Z,99.99
2022-09-12T15:52:29.098Z,99.99
2022-09-12T15:57:48.302Z,99.99
2022-09-12T16:03:07.398Z,99.99
2022-09-12T16:08:26.380Z,99.99
2022-09-12T16:13:45.138Z,99.99
2022-09-12T16:24:23.534Z,99.99
2022-09-12T16:29:42.915Z,99.99
2022-09-12T16:35:02.544Z,99.99
2022-09-12T16:40:21.546Z,99.99
2022-09-12T16:45:40.915Z,99.99
2022-09-12T16:56:19.093Z,99.99
2022-09-12T17:01:38.687Z,99.99
2022-09-12T17:06:58.002Z,99.99
2022-09-12T17:12:17.499Z,99.99
2022-09-12T17:22:56.241Z,99.99
2022-09-12T17:38:53.508Z,99.99
2022-09-12T17:44:12.917Z,99.99
2022-09-12T17:49:31.671Z,99.99
2022-09-12T17:54:51.329Z,99.99
2022-09-12T18:05:29.685Z,99.99
2022-09-12T18:10:48.496Z,99.99
2022-09-12T18:16:07.860Z,99.99
2022-09-12T18:21:27.163Z,99.99
2022-09-12T18:26:46.744Z,99.99
2022-09-12T18:37:24.351Z,99.99
2022-09-12T18:48:02.181Z,99.99
2022-09-12T18:53:21.680Z,99.99
2022-09-12T18:58:41.329Z,99.99
2022-09-12T19:04:00.195Z,99.99
2022-09-12T19:09:18.990Z,99.99
2022-09-12T19:19:57.452Z,99.99
2022-09-12T19:25:16.215Z,99.99
2022-09-12T19:30:35.566Z,99.99
2022-09-12T19:35:54.458Z,99.99
2022-09-12T19:41:15.261Z,99.99
2022-09-12T19:46:33.900Z,99.99
2022-09-12T19:51:52.922Z,99.99
2022-09-12T20:00:53.936Z,99.99
2022-09-12T20:06:12.798Z,99.99
2022-09-12T20:16:51.609Z,99.99
2022-09-12T20:22:10.624Z,99.99
2022-09-12T20:27:30.006Z,99.99
2022-09-12T20:32:49.275Z,99.99
2022-09-12T20:38:08.500Z,99.99
2022-09-12T20:43:27.342Z,99.99
2022-09-12T20:54:06.091Z,99.99
2022-09-12T20:59:25.402Z,99.99
2022-09-12T21:04:44.814Z,99.99
2022-09-12T21:10:04.221Z,99.99
2022-09-12T21:15:23.058Z,99.99
2022-09-12T21:20:42.772Z,99.99
2022-09-12T21:26:01.862Z,99.99
2022-09-12T21:31:20.810Z,99.99
2022-09-12T21:36:39.923Z,99.99
2022-09-12T21:41:59.091Z,99.99
2022-09-12T21:52:37.280Z,99.99
2022-09-12T22:01:10.367Z,99.99
2022-09-12T22:05:26.878Z,99.99
2022-09-12T22:13:53.220Z,99.99
2022-09-12T22:19:12.142Z,99.99
2022-09-12T22:24:31.550Z,99.99
2022-09-12T22:29:51.283Z,99.99
2022-09-12T22:35:10.386Z,99.99
2022-09-12T22:40:30.031Z,99.99
2022-09-12T22:45:49.460Z,99.99
2022-09-12T22:51:08.604Z,99.99
2022-09-12T22:56:28.196Z,99.99
2022-09-12T23:05:01.251Z,99.99
2022-09-12T23:13:34.307Z,99.99
2022-09-12T23:23:03.145Z,99.99
2022-09-12T23:28:22.338Z,99.99
2022-09-12T23:33:42.100Z,99.99
2022-09-12T23:49:39.167Z,99.99
